logo
Search for airport 
image banner adimage banner adimage banner ad
image banner ad

FLOB - Muloba

Located in , Zambia

ICAO - , IATA -

Data provided by Airmate  

General information

Coordinates: S13°42'4" E29°2'27"
Elevation is 3976 feet MSL.
 
View others Airports in Central Province

Operational data

Special qualification required
Current time UTC:
Current local time:
Weather at : - ( 0 km )
METAR: UUOK 171950Z AUTO 22004MPS 9999 // ///010/// 19/18 Q1009 RMK QFE739/0985
View NOTAMs / SUP AIP / TFR affecting this airport [VIEW]
Communications frequencies: [VIEW]

Runways:

Airport contact information

Address: Zambia

Satellite view of FLOB